NWS Home NWS Lubbock West Texas Mesonet                      Daily Summary For 06/18/2019

Latest   N   C   S   Daily Sum   3hrΔ   24hrΔ   Soil Data 
Site Map   24hr Precip   72hr Precip   Google Plot

Previous  Date  


Station Time of Last Max Temp Min Temp Max/Min Dew Pt. Max/Min RH 10m Avg Wind 2m Avg Wind Peak Gust @ 33ft (mph) Potential Evapotranspiration
mm/day or in/day
Rain Sum Solar Rad
MJ/m^2
% Clear Day Red Flag
Abernathy 5ENE 12:15 PM 80 62 64 /54 85 / 59 12.4  (N) 8.7 32.9 mph 2° @ 1205 AM 3 or 0.12 0.07 9.6 70.5 0
Adrian 6WSW 12:15 PM 75 56 61 /54 95 / 58 11.7  (SE) 8.9 23.3 mph 177° @ 0115 AM 2.3 or 0.09 0.00 9.1 70.2 0
Aiken 3WSW 12:15 PM 78 60 66 /51 90 / 52 10.8  (N) 7.7 28.1 mph 308° @ 0129 AM 2.3 or 0.09 0.28 10.2 75.9 0
Amarillo 15NNW 12:15 PM 78 58 63 /55 100 / 56 7.4  (SE) 4.5 22.3 mph 199° @ 0207 AM 1.8 or 0.07 0.00 8 62.5 0
Amarillo 7SSE 12:15 PM 80 56 59 /53 100 / 47 9.1  (SE) 5.8 31.1 mph 164° @ 0145 AM 2.3 or 0.09 0.00 9.8 75 0
Amarillo 9NNE 12:15 PM 77 57 61 /53 93 / 55 8  (SE) 5.1 35.9 mph 193° @ 0151 AM 2 or 0.08 0.00 8.7 67.4 0
Amherst 1NE 12:15 PM 78 60 63 /55 89 / 64 11.2  (E) 8.1 30.5 mph 75° @ 0140 AM 2.5 or 0.1 0.08 9.4 69.3 0
Andrews 2E 12:15 PM 86 64 66 /55 82 / 46 10.3  (SE) 6.1 29.7 mph 28° @ 0255 AM 3 or 0.12 0.00 8.6 60.2 0
Anton 6SSW 12:15 PM 78 61 65 /54 89 / 65 12  (NE) 8.9 33.6 mph 26° @ 1235 AM 2.5 or 0.1 0.09 9.7 71.2 0
Aspermont 3NE 12:15 PM 84 65 67 /61 100 / 56 9.6  (E) 6.1 40.9 mph 335° @ 0155 AM 2.5 or 0.1 1.35 9.4 68.6 0
Big Bend NP - Castolon 12:15 PM 91 75 68 /64 72 / 47 3.7  (W) 2.4 10.2 mph 355° @ 0336 AM 2.3 or 0.09 0.00 7.6 48.5 0
Big Lake 1WNW 12:15 PM 81 69 72 /67 95 / 72 8.1  (SE) 5.4 24.3 mph 165° @ 1202 PM 1.5 or 0.06 0.00 5 33.9 0
Bootleg 11WNW 12:15 PM 76 54 61 /53 96 / 55 11.6  (SE) 8.2 24.8 mph 220° @ 1056 AM 2.3 or 0.09 0.00 8.4 63.8 0
Boys Ranch 1WSW 12:15 PM 79 57 62 /56 100 / 52 5.4  (SE) 3.8 16.7 mph 243° @ 1120 AM 1.8 or 0.07 0.00 9.3 72.5 0
Brownfield 2S 12:15 PM 79 62 67 /57 90 / 67 11.3  (N) 8.5 36.2 mph 2° @ 1205 AM 2.5 or 0.1 0.05 9.4 67.8 0
Canadian 6E 12:15 PM 82 62 65 /58 99 / 43 6.3  (SE) 3.7 16.9 mph 119° @ 0205 AM 1.8 or 0.07 0.00 9.2 73.8 0
Caprock Canyons State Park 12:15 PM 80 61 63 /57 91 / 53 9  (W) 5.6 38.2 mph 269° @ 0126 AM 2.3 or 0.09 0.26 10.1 76.3 0
Childress 2NNE 12:15 PM 84 66 61 /56 84 / 42 9  (SW) 5.1 24.8 mph 253° @ 0100 AM 2.8 or 0.11 0.00 9.6 72.8 0
Clarendon 2WSW 12:15 PM 80 62 58 /52 84 / 46 9.5  (NW) 6.5 37 mph 153° @ 0215 AM 2.5 or 0.1 0.00 10.3 79.3 0
Clyde 2WNW 12:15 PM 81 63 68 /61 98 / 62 11.8  (SE) 8.5 57.1 mph 321° @ 0434 AM 2.3 or 0.09 0.40 8.3 59 0
Colorado City 5NW 12:15 PM 79 64 67 /61 93 / 61 12.2  (SE) 8 35.7 mph 330° @ 0335 AM 2.3 or 0.09 0.00 6.2 43.6 0
Coyanosa 2N 12:15 PM 88 69 69 /59 96 / 38 7.2  (E) 4.5 16.3 mph 183° @ 1111 AM 2.5 or 0.1 0.00 8.7 59.2 0
Crane 1NNW 12:15 PM 88 72 69 /66 88 / 48 10.4  (SE) 8.4 22.6 mph 144° @ 0852 AM 3 or 0.12 0.00 9.2 62.8 0
Crowell 1E 12:15 PM 85 69 66 /61 83 / 50 7.1  (SW) 5.2 23.3 mph 164° @ 0502 AM 2.5 or 0.1 0.00 9.5 71.2 0
Dell City 12:15 PM 84 64 60 /49 66 / 40 4.1  (S) 2.3 10.5 mph 360° @ 0429 AM 2 or 0.08 0.00 8.8 60.8 0
Denver City 7WNW 12:15 PM 79 58 62 /51 89 / 57 11.6  (S) 7.9 43.1 mph 15° @ 1255 AM 2.8 or 0.11 0.02 9 64.2 0
Dimmitt 2NE 12:15 PM 77 56 58 /53 93 / 54 13.4  (SE) 10.4 38.1 mph 141° @ 0130 AM 2.8 or 0.11 0.01 9.6 72.5 0
Dora NM 2SW 12:15 PM 81 57 57 /52 91 / 44 12.6  (NE) 8.4 26.5 mph 77° @ 1240 AM 3.3 or 0.13 0.00 8.7 63.5 0
Dozier 3W 12:15 PM 83 66 65 /54 88 / 47 7  (W) 3.5 25.4 mph 258° @ 0503 AM 2.3 or 0.09 0.00 9.4 72.8 0
Earth 9WSW 12:15 PM 78 58 64 /55 91 / 58 12.3  (E) 9.4 31.9 mph 106° @ 1207 AM 2.5 or 0.1 0.06 9.8 73 0
Endee NM 2SW 12:15 PM 80 56 61 /55 95 / 52 7.1  (S) 4.8 22 mph 238° @ 1145 AM 2 or 0.08 0.00 8.9 67.9 0
Estelline 3SSE 12:15 PM 86 66 64 /56 85 / 44 7.8  (SW) 5 30.4 mph 276° @ 0114 AM 2.8 or 0.11 0.00 9.9 75.6 0
Floydada 2NNE 12:15 PM 80 61 63 /51 91 / 51 12  (NW) 8.1 29.3 mph 321° @ 1240 AM 2.8 or 0.11 0.15 10 74.1 0
Fluvanna 3WNW 12:15 PM 77 62 66 /57 94 / 61 12.3  (E) 9.7 28.2 mph 176° @ 1210 PM 2.3 or 0.09 0.31 8.3 59.6 0
Fort Chadbourne 12:15 PM 77 64 69 /63 100 / 70 7.5  (SE) 5.3 25.7 mph 335° @ 0527 AM 1.5 or 0.06 0.89 6.8 47.9 0
Fort Lancaster 12:15 PM 86 74 75 /69 86 / 67 6.6  (E) 4.2 18.6 mph 137° @ 1154 AM 1.8 or 0.07 0.00 5.5 36.9 0
Fort Lewis CO 12:15 PM 68 42 48 /38 89 / 43 6.7  (NE) 3.5 18.6 mph 251° @ 1201 PM 1.8 or 0.07 0.00 9.4 75.8 0
Fort McKavett 12:15 PM 82 66 71 /64 100 / 68 4.5  (SW) 1.8 17.5 mph 26° @ 0841 AM 1.5 or 0.06 0.00 6 40.1 0
Friona 2NE 12:15 PM 78 54 57 /51 96 / 48 10.6  (SE) 7.7 24.7 mph 152° @ 1250 AM 2.5 or 0.1 0.01 10.2 76.9 0
Fritch 1WNW 12:15 PM 78 62 62 /54 86 / 55 4.8  (SE) 3.5 18 mph 145° @ 1242 AM 1.8 or 0.07 0.00 10.9 85.9 0
Gail 2ESE 12:15 PM 82 63 66 /56 91 / 55 10.2  (S) 5.6 46.8 mph 325° @ 0320 AM 2.5 or 0.1 0.56 7.9 56.1 0
Goodlett 3W 12:15 PM 84 69 62 /57 79 / 48 8.2  (SW) 6 21.2 mph 276° @ 0225 AM 2.8 or 0.11 0.00 9.8 74.2 0
Goodnight 12:15 PM 80 61 61 /52 84 / 49 9.6  (NW) 5.6 38.7 mph 167° @ 0213 AM 2.5 or 0.1 0.01 9.4 72.6 0
Graham 5SSW 12:15 PM 81 63 65 /55 87 / 51 13.7  (W) 9.7 35 mph 31° @ 0115 AM 3.3 or 0.13 0.00 9.6 69.3 0
Guadalupe Mtns Natl Park 12:15 PM 80 60 57 /44 81 / 36 7.1  (W) 5.1 17.8 mph 191° @ 1128 AM 2.5 or 0.1 0.00 9.1 61.3 0
Guthrie 10WSW 12:15 PM 84 65 64 /57 92 / 54 9.6  (E) 6.2 34.3 mph 320° @ 0100 AM 2.8 or 0.11 0.07 7.9 58.1 0
Hackberry 2 SSE 12:15 PM 84 66 68 /60 89 / 54 10.2  (SE) 7.5 22.8 mph 284° @ 0127 AM 2.8 or 0.11 0.02 10.2 76.3 0
Happy 1E 12:15 PM 80 58 61 /55 93 / 48 10.6  (NE) 7.9 31.8 mph 139° @ 1248 AM 2.5 or 0.1 0.04 9.8 74.2 0
Hart 3N 12:15 PM 78 59 62 /55 93 / 58 11.8  (E) 7.9 32.1 mph 147° @ 0200 AM 2.5 or 0.1 0.04 9.7 72.5 0
Haskell 1NW 12:15 PM 83 67 65 /61 94 / 55 9.6  (SE) 7.4 30.8 mph 338° @ 0255 AM 2.5 or 0.1 0.32 8.5 62.2 0
Hereford 2NW 12:15 PM 80 55 59 /52 96 / 45 6.7  (SE) 4.8 19.9 mph 222° @ 1155 AM 2 or 0.08 0.01 9.9 74.8 0
Hobbs NM 5NW 12:15 PM 81 62 66 /53 81 / 47 9.5  (SE) 6.9 31.7 mph 37° @ 0138 AM 2.8 or 0.11 0.00 8 56.8 0
Jayton 1SSE 12:15 PM 83 64 67 /60 97 / 57 9.7  (SE) 6.5 31.5 mph 350° @ 0130 AM 2.5 or 0.1 0.21 9.4 68.7 0
Junction 1SSW 12:15 PM 84 67 71 /64 100 / 64 3.5  (SW) 2.2 22.8 mph 11° @ 0924 AM 1.5 or 0.06 0.00 6.4 42.5 0
Lake Alan Henry 1NW 12:15 PM 82 64 69 /59 94 / 58 9.5  (SE) 5.7 27.1 mph 12° @ 0124 AM 2.3 or 0.09 0.04 8.2 59.5 0
Lake McClellan 2NW 12:15 PM 79 60 59 /50 87 / 46 9.7  (W) 7.1 43 mph 168° @ 0148 AM 2.5 or 0.1 0.00 9.9 76.7 0
Lamesa 2SE 12:15 PM 83 63 66 /56 88 / 58 11.8  (E) 7.4 39.6 mph 340° @ 0225 AM 2.8 or 0.11 0.06 8.7 61.7 0
Lesley 2S 12:15 PM 83 65 62 /56 91 / 45 9.1  (NW) 6.3 32.2 mph 266° @ 1251 AM 2.5 or 0.1 0.08 9.7 74.1 0
Levelland 4S 12:15 PM 80 61 65 /54 90 / 62 12.3  (NE) 8.7 31.6 mph 32° @ 1230 AM 2.8 or 0.11 0.15 9 65.7 0
Lomax 1SSE 12:15 PM 82 67 69 /59 90 / 59 12.4  (SE) 9.6 34.5 mph 31° @ 0400 AM 2.5 or 0.1 0.00 6.4 44.8 0
Lubbock 3WNW TTU 12:15 PM 82 63 65 /54 83 / 54 9.1  (NE) 4.9 29.9 mph 18° @ 0115 AM 2.8 or 0.11 0.01 9.2 67.5 0
McCamey 1SSW 12:15 PM 89 73 70 /67 88 / 49 8.7  (SE) 7.3 24.1 mph 155° @ 1146 AM 2.5 or 0.1 0.00 7.1 48.4 0
McLean 1E 12:15 PM 81 63 60 /50 87 / 44 8.2  (SW) 5.7 33.4 mph 182° @ 0250 AM 2.5 or 0.1 0.00 10.7 83.5 0
Memphis 1NE 12:15 PM 83 65 62 /57 84 / 44 5.6  (W) 3.9 24.2 mph 260° @ 0215 AM 2 or 0.08 0.00 9 69.2 0
Menard 2NW 12:15 PM 79 64 72 /63 100 / 75 5  (E) 3.3 30 mph 27° @ 0826 AM 1.3 or 0.05 0.06 5.6 37.8 0
Mertzon 3NNE 12:15 PM 79 67 73 /64 100 / 75 5.3  (E) 3 18.2 mph 168° @ 1214 PM 1.3 or 0.05 0.00 3.2 21.9 0
Morton 1ENE 12:15 PM 79 61 64 /53 90 / 61 12.5  (NE) 8.4 42.5 mph 19° @ 1215 AM 2.8 or 0.11 0.40 9.4 68.7 0
Muleshoe 2SSW 12:15 PM 78 57 61 /55 96 / 57 10.7  (NE) 7.5 32.1 mph 131° @ 0255 AM 2.5 or 0.1 0.12 9.6 71 0
New Home 12:15 PM 80 62 70 /54 91 / 52 10.4  (SE) 7.1 27.4 mph 204° @ 1148 AM 2.3 or 0.09 0.10 9.6 69.6 0
Northfield 1S 12:15 PM 82 63 62 /56 86 / 49 9.1  (W) 6.1 31.6 mph 303° @ 1240 AM 2.8 or 0.11 0.02 10.1 76.2 0
O'Donnell 1N 12:15 PM 82 62 63 /50 86 / 44 11.9  (N) 8.8 34.6 mph 23° @ 0120 AM 3 or 0.12 0.06 8.3 59.6 0
Odell 4ENE 12:15 PM 84 69 68 /62 93 / 51 6.4  (E) 4 18.8 mph 182° @ 0647 AM 2.3 or 0.09 0.00 9.4 71.4 0
Olton 6S 12:15 PM 77 60 64 /55 95 / 64 10.7  (NE) 7.5 27.8 mph 264° @ 0320 AM 2.3 or 0.09 0.11 9.3 68.6 0
Paducah 10SW 12:15 PM 83 65 64 /58 90 / 53 10.6  (SE) 6.3 27.7 mph 295° @ 1235 AM 2.8 or 0.11 0.00 9.1 67.5 0
Palo Duro 4E (JA Ranch) 12:15 PM 81 60 62 /54 90 / 49 9.1  (NW) 5.8 32 mph 181° @ 0140 AM 2.3 or 0.09 0.12 9.7 74.1 0
Palo Duro Canyon SP Floor 12:15 PM 82 61 63 /52 93 / 47 5.3  (NW) 1.8 32.3 mph 159° @ 0115 AM 2 or 0.08 0.05 9 68.8 0
Palo Duro Canyon State Park Rim 12:15 PM 78 59 61 /51 88 / 51 7  (S) 3.1 25.9 mph 129° @ 1253 AM 2 or 0.08 0.03 7.7 58.9 0
Palo Duro Reservoir 1NW 12:15 PM 78 60 64 /58 97 / 54 5.5  (W) 3.6 15.2 mph 201° @ 1202 PM 1.5 or 0.06 0.00 9.7 78.8 0
Pampa 2E 12:15 PM 78 60 59 /53 94 / 49 7.5  (SW) 5.2 21.6 mph 301° @ 0405 AM 2 or 0.08 0.00 10.5 82.3 0
Panhandle 1SSW 12:15 PM 77 60 60 /52 88 / 53 9.5  (NW) 7 32.9 mph 198° @ 0223 AM 2.3 or 0.09 0.01 9.6 74.3 0
Plains 3N 12:15 PM 79 59 64 /54 89 / 61 11.1  (NE) 8.1 38.4 mph 354° @ 1235 AM 2.5 or 0.1 0.01 9.1 65.2 0
Plainview 1S 12:15 PM 77 61 66 /56 94 / 66 7.6  (N) 5.1 22.7 mph 189° @ 0400 AM 2 or 0.08 0.26 8.8 65.3 0
Post 1NE 12:15 PM 83 64 66 /54 89 / 51 9.8  (N) 5.8 26.5 mph 24° @ 0130 AM 2.8 or 0.11 0.04 9.7 70.2 0
Ralls 1SE 12:15 PM 83 62 63 /51 81 / 50 11.9  (N) 8.1 33.1 mph 351° @ 1220 AM 3.6 or 0.14 0.00 9.7 71.1 0
Reese Center 12:15 PM 79 60 66 /55 89 / 65 11.3  (N) 7 35.7 mph 40° @ 1250 AM 2.5 or 0.1 0.06 9.5 69.6 0
Roaring Springs 3N 12:15 PM 81 62 66 /58 98 / 61 9.9  (W) 6.4 36.1 mph 295° @ 1210 AM 2.5 or 0.1 0.15 9.2 68.5 0
Romero 11 SSW 12:15 PM 77 56 62 /54 94 / 56 8.1  (SW) 5.9 22.4 mph 257° @ 1023 AM 2 or 0.08 0.00 9.2 71.8 0
Rotan 5W 12:15 PM 82 65 69 /62 97 / 61 14.2  (E) 10 38.1 mph 360° @ 0221 AM 2.8 or 0.11 1.00 9.2 66 0
San Angelo 7NW 12:15 PM 80 66 67 /60 92 / 65 7.3  (E) 4 24.9 mph 35° @ 0640 AM 1.8 or 0.07 0.00 4.2 28.8 0
Seagraves 1SW 12:15 PM 80 62 66 /54 89 / 58 9.5  (SE) 6.7 35.9 mph 8° @ 0105 AM 2.5 or 0.1 0.36 8.4 59.6 0
Segovia 7SSW 12:15 PM 82 68 70 /64 92 / 67 6.8  (S) 4.8 22.3 mph 17° @ 0956 AM 2 or 0.08 0.00 7.9 52.5 0
Seminole 2NNE 12:15 PM 81 62 66 /55 87 / 58 10.8  (NE) 7.5 33.2 mph 7° @ 0135 AM 2.8 or 0.11 0.01 8.6 61.2 0
Seymour 3NW 12:15 PM 83 67 66 /61 95 / 54 6.2  (S) 4.3 22.7 mph 169° @ 0645 AM 2 or 0.08 0.17 8.9 66.1 0
Sierra Blanca 1SSE 12:15 PM 87 66 56 /37 65 / 18 6.4  (SE) 4.4 15.4 mph 170° @ 0222 AM 2.8 or 0.11 0.00 8.1 53.8 0
Silverton 7ESE 12:15 PM 78 59 60 /50 94 / 49 7.8  (W) 4.8 27.1 mph 258° @ 0110 AM 2 or 0.08 0.38 9.6 72.3 0
Slaton 2NE 12:15 PM 82 61 66 /54 88 / 58 11.4  (N) 7.9 29.4 mph 9° @ 1255 AM 2.8 or 0.11 0.00 9.1 66 0
Smyer 12:15 PM 80 62 67 /53 89 / 57 11  (N) 8.4 36.8 mph 241° @ 0156 AM 2.5 or 0.1 0.06 9.5 69.6 0
Snyder 3E 12:15 PM 79 61 66 /60 100 / 65 13.1  (E) 5.9 39.7 mph 342° @ 0335 AM 2.3 or 0.09 0.83 7.3 52.3 0
Snyder 3SSW 12:15 PM 78 63 66 /60 98 / 62 11.1  (SE) 7.7 31.3 mph 4° @ 0222 AM 1.8 or 0.07 0.35 6.7 47.7 0
South Plains 3ENE 12:15 PM 77 58 65 /55 94 / 60 10.1  (NW) 6.2 28.7 mph 299° @ 1238 AM 2 or 0.08 0.18 9.8 73.2 0
Spur 1W 12:15 PM 84 63 63 /55 92 / 51 8.5  (NE) 6 33 mph 347° @ 1235 AM 2.5 or 0.1 0.01 6.4 47.1 0
St. Lawrence 5SW 12:15 PM 81 68 69 /62 94 / 65 12.8  (SE) 9.3 25.8 mph 141° @ 1200 PM 2.3 or 0.09 0.00 5.2 35.8 0
Stamford 5ESE 12:15 PM 82 66 70 /62 100 / 63 11.9  (E) 9.5 46.9 mph 319° @ 0320 AM 2.5 or 0.1 1.75 8.8 63.7 0
Sterling City 4WSW 12:15 PM 79 66 71 /62 100 / 65 7.5  (SE) 5 22.2 mph 141° @ 1200 PM 1.5 or 0.06 0.00 3.9 26.7 0
Stinnett 1NNW 12:15 PM 78 60 62 /56 96 / 55 5.9  (N) 4 15.2 mph 295° @ 0537 AM 1.8 or 0.07 0.00 9.1 72.3 0
Sundown 8WSW 12:15 PM 80 59 64 /53 92 / 60 11.6  (NE) 6.9 39.7 mph 322° @ 1245 AM 2.8 or 0.11 0.11 8.6 62.1 0
Sweetwater 11SW 12:15 PM 79 63 66 /61 97 / 60 13  (SE) 9.7 34.9 mph 23° @ 0439 AM 2.3 or 0.09 0.09 8 56.2 0
Tahoka 3NNE 12:15 PM 83 62 68 /56 93 / 57 11.5  (NW) 6.8 35.8 mph 12° @ 1247 AM 3 or 0.12 0.09 9.6 69.3 0
Tarzan 2WNW 12:15 PM 82 66 68 /57 83 / 62 14.1  (E) 9 34.4 mph 26° @ 0318 AM 2.8 or 0.11 0.00 6.3 43.9 0
Tatum NM 2SW 12:15 PM 81 56 62 /51 92 / 52 10.6  (SE) 6.2 43.8 mph 12° @ 1235 AM 2.8 or 0.11 0.49 9.1 65.6 0
Throckmorton 1SW 12:15 PM 84 67 68 /61 97 / 53 6.8  (SE) 2.6 22.3 mph 161° @ 0759 AM 2 or 0.08 0.25 8 58.7 0
Tulia 2ENE 12:15 PM 79 60 59 /53 94 / 52 10.4  (SE) 7.1 27.5 mph 132° @ 0110 AM 2.5 or 0.1 0.09 9.1 68.4 0
Turkey 2WSW 12:15 PM 80 64 62 /55 87 / 55 10.6  (W) 8.2 41.6 mph 269° @ 1210 AM 2.5 or 0.1 0.19 9.1 68.8 0
Umbarger 3NNE 12:15 PM 80 56 60 /55 96 / 49 9  (N) 6.2 29.7 mph 161° @ 0111 AM 2.3 or 0.09 0.00 9.8 74.9 0
Van Horn 3ENE 12:15 PM 87 67 63 /49 79 / 31 7.1  (S) 4.8 23.5 mph 185° @ 0108 AM 2.8 or 0.11 0.00 8.8 58.7 0
Vigo Park 12:15 PM 78 58 62 /53 100 / 55 10.3  (W) 6.9 28.6 mph 140° @ 0100 AM 2.3 or 0.09 0.20 8.6 64.8 0
Wall 2E 12:15 PM 84 65 71 /62 96 / 62 11.7  (SE) 8.6 34.3 mph 35° @ 0656 AM 2.3 or 0.09 0.00 8.1 55.7 0
Weinert 2NNE 12:15 PM 83 67 68 /61 93 / 57 9.5  (E) 6.1 26.1 mph 174° @ 0649 AM 2.5 or 0.1 0.32 8.9 65.4 0
Welch 12:15 PM 81 63 70 /55 100 / 52 11.2  (NE) 8.8 34.4 mph 325° @ 0134 AM 2.5 or 0.1 0.82 9.2 65.9 0
White River Lake 6NW 12:15 PM 83 62 64 /53 91 / 55 10.5  (NW) 7.1 34.3 mph 335° @ 1220 AM 3 or 0.12 0.05 9.6 69.9 0
Wolfforth 6SSW 12:15 PM 79 62 68 /56 91 / 73 11.9  (N) 8.3 29.9 mph 18° @ 0110 AM 2.5 or 0.1 0.03 9 65 0

WestTexas Mesonet Home    Site Map/Menu  National Weather Service Lubbock   Soil Data   Latest Observation Page   Previous  Date